Kavarna, Bulgaria
Current Conditions -  °F | °C
As of 7:00 PM on Wednesday 26 Nov 2014 (Local Time) from LBWN Reporting Station
Broken Clouds Broken Clouds  
Wind Chill: 20°   Ceiling: 2500
Heat Index: 30°   Visibility: 6mi
Dew Point: 25°   Wind: 13mph
Humidity: 80%   Direction: 330°NNW
Pressure: 30.3"   Gusts: NA
Location:  43.44°N, 28.34°E
Report Text: LBWN 261600Z 33006MPS 9999 BKN025 M01/M04 Q1026 NOSIG
Loading
Personal Weather Stations






























Interactive Weather Map New forecast layout! Learn more

10-Day Weather Forecast

Advertisements
Track Severe Weather on mobile